createdAt,value
2016-10-22T00:00:08.459Z,954.07
2016-10-22T00:01:08.249Z,954.06
2016-10-22T00:02:08.065Z,954.10
2016-10-22T00:03:07.660Z,954.12
2016-10-22T00:04:07.413Z,954.12
2016-10-22T00:05:07.957Z,954.11
2016-10-22T00:06:07.644Z,954.12
2016-10-22T00:07:07.428Z,954.14
2016-10-22T00:08:08.026Z,954.11
2016-10-22T00:09:07.639Z,954.10
2016-10-22T00:10:08.287Z,954.08
2016-10-22T00:11:07.842Z,954.14
2016-10-22T00:12:17.980Z,954.10
2016-10-22T00:13:07.881Z,954.05
2016-10-22T00:14:07.467Z,954.07
2016-10-22T00:15:08.130Z,954.07
2016-10-22T00:16:07.619Z,954.05
2016-10-22T00:17:08.318Z,954.04
2016-10-22T00:18:07.869Z,954.03
2016-10-22T00:19:07.447Z,954.05
2016-10-22T00:20:07.996Z,954.06
2016-10-22T00:21:07.556Z,954.01
2016-10-22T00:22:08.112Z,954.02
2016-10-22T00:23:07.778Z,954.05
2016-10-22T00:24:07.283Z,954.03
2016-10-22T00:25:07.923Z,954.04
2016-10-22T00:26:07.573Z,954.01
2016-10-22T00:27:08.122Z,954.03
2016-10-22T00:28:07.645Z,954.06
2016-10-22T00:29:08.145Z,954.04
2016-10-22T00:30:08.087Z,954.05
2016-10-22T00:31:07.843Z,954.01
2016-10-22T00:32:07.467Z,954.06
2016-10-22T00:33:13.544Z,954.01
2016-10-22T00:34:09.029Z,954.02
2016-10-22T00:35:08.615Z,954.02
2016-10-22T00:36:13.883Z,953.99
2016-10-22T00:37:07.562Z,954.04
2016-10-22T00:38:08.178Z,954.04
2016-10-22T00:39:07.826Z,954.00
2016-10-22T00:40:13.921Z,954.01
2016-10-22T00:41:07.529Z,954.01
2016-10-22T00:42:08.115Z,953.97
2016-10-22T00:43:08.073Z,953.97
2016-10-22T00:44:07.636Z,953.99
2016-10-22T00:45:08.117Z,953.98
2016-10-22T00:46:07.603Z,953.99
2016-10-22T00:47:13.818Z,953.91
2016-10-22T00:48:07.309Z,953.90
2016-10-22T00:49:07.899Z,953.90
2016-10-22T00:50:07.413Z,953.89
2016-10-22T00:51:08.053Z,953.86
2016-10-22T00:52:07.517Z,953.87
2016-10-22T00:53:07.957Z,953.86
2016-10-22T00:54:08.213Z,953.89
2016-10-22T00:55:07.775Z,953.89
2016-10-22T00:56:07.292Z,953.87
2016-10-22T00:57:07.796Z,953.92
2016-10-22T00:58:07.406Z,953.87
2016-10-22T00:59:08.012Z,953.86
2016-10-22T01:00:07.592Z,953.86
2016-10-22T01:01:08.125Z,953.79
2016-10-22T01:02:07.866Z,953.82
2016-10-22T01:03:07.276Z,953.83
2016-10-22T01:04:07.801Z,953.82
2016-10-22T01:05:07.385Z,953.78
2016-10-22T01:06:08.181Z,953.79
2016-10-22T01:07:07.955Z,953.79
2016-10-22T01:08:07.447Z,953.77
2016-10-22T01:09:08.012Z,953.76
2016-10-22T01:10:07.437Z,953.73
2016-10-22T01:11:07.935Z,953.72
2016-10-22T01:12:08.285Z,953.66
2016-10-22T01:13:07.775Z,953.60
2016-10-22T01:14:07.460Z,953.61
2016-10-22T01:15:08.125Z,953.60
2016-10-22T01:16:07.717Z,953.65
2016-10-22T01:17:08.326Z,953.62
2016-10-22T01:18:07.840Z,953.65
2016-10-22T01:19:08.110Z,953.68
2016-10-22T01:20:07.636Z,953.64
2016-10-22T01:21:07.703Z,953.64
2016-10-22T01:22:08.232Z,953.62
2016-10-22T01:23:07.749Z,953.59
2016-10-22T01:24:08.178Z,953.59
2016-10-22T01:25:07.449Z,953.58
2016-10-22T01:26:07.505Z,953.57
2016-10-22T01:27:08.182Z,953.58
2016-10-22T01:28:07.740Z,953.57
2016-10-22T01:29:08.447Z,953.59
2016-10-22T01:30:07.575Z,953.59
2016-10-22T01:31:08.050Z,953.61
2016-10-22T01:32:08.341Z,953.57
2016-10-22T01:33:08.042Z,953.55
2016-10-22T01:34:07.693Z,953.51
2016-10-22T01:35:08.411Z,953.52
2016-10-22T01:36:08.102Z,953.50
2016-10-22T01:37:07.656Z,953.49
2016-10-22T01:38:08.035Z,953.47
2016-10-22T01:39:07.563Z,953.47
2016-10-22T01:40:08.177Z,953.48
2016-10-22T01:41:07.858Z,953.45
2016-10-22T01:42:08.307Z,953.47
2016-10-22T01:43:07.909Z,953.46
2016-10-22T01:44:08.274Z,953.44
2016-10-22T01:45:07.800Z,953.43
2016-10-22T01:46:07.425Z,953.47
2016-10-22T01:47:07.379Z,953.49
2016-10-22T01:48:08.242Z,953.48
2016-10-22T01:49:07.734Z,953.47
2016-10-22T01:50:07.892Z,953.44
2016-10-22T01:51:07.333Z,953.47
2016-10-22T01:52:07.830Z,953.45
2016-10-22T01:53:08.212Z,953.41
2016-10-22T01:54:07.727Z,953.41
2016-10-22T01:55:07.500Z,953.42
2016-10-22T01:56:08.067Z,953.41
2016-10-22T01:57:07.658Z,953.43
2016-10-22T01:58:08.432Z,953.41
2016-10-22T01:59:08.061Z,953.42
2016-10-22T02:00:07.617Z,953.41
2016-10-22T02:01:08.011Z,953.40
2016-10-22T02:02:07.482Z,953.41
2016-10-22T02:03:07.952Z,953.41
2016-10-22T02:04:07.557Z,953.42
2016-10-22T02:05:08.042Z,953.44
2016-10-22T02:06:07.879Z,953.43
2016-10-22T02:07:12.969Z,953.43
2016-10-22T02:08:08.355Z,953.43
2016-10-22T02:09:07.398Z,953.44
2016-10-22T02:10:07.958Z,953.43
2016-10-22T02:11:08.476Z,953.41
2016-10-22T02:12:08.078Z,953.37
2016-10-22T02:13:07.628Z,953.41
2016-10-22T02:14:08.239Z,953.41
2016-10-22T02:15:07.802Z,953.42
2016-10-22T02:16:07.282Z,953.41
2016-10-22T02:17:07.983Z,953.40
2016-10-22T02:18:07.591Z,953.40
2016-10-22T02:19:08.183Z,953.37
2016-10-22T02:20:07.641Z,953.34
2016-10-22T02:21:08.092Z,953.37
2016-10-22T02:22:07.781Z,953.32
2016-10-22T02:23:07.341Z,953.29
2016-10-22T02:24:07.892Z,953.35
2016-10-22T02:25:07.363Z,953.31
2016-10-22T02:26:07.830Z,953.33
2016-10-22T02:27:07.713Z,953.31
2016-10-22T02:28:07.963Z,953.31
2016-10-22T02:29:07.679Z,953.32
2016-10-22T02:30:08.303Z,953.34
2016-10-22T02:31:08.195Z,953.36
2016-10-22T02:32:08.149Z,953.30
2016-10-22T02:33:07.640Z,953.25
2016-10-22T02:34:08.210Z,953.29
2016-10-22T02:35:08.248Z,953.21
2016-10-22T02:36:08.477Z,953.24
2016-10-22T02:37:07.924Z,953.24
2016-10-22T02:38:07.610Z,953.21
2016-10-22T02:39:08.173Z,953.22
2016-10-22T02:40:07.720Z,953.22
2016-10-22T02:41:08.325Z,953.21
2016-10-22T02:42:08.291Z,953.22
2016-10-22T02:43:07.879Z,953.24
2016-10-22T02:44:07.450Z,953.21
2016-10-22T02:45:08.190Z,953.19
2016-10-22T02:46:07.819Z,953.18
2016-10-22T02:47:07.495Z,953.22
2016-10-22T02:48:07.953Z,953.21
2016-10-22T02:49:08.110Z,953.23
2016-10-22T02:50:07.756Z,953.14
2016-10-22T02:51:07.385Z,953.18
2016-10-22T02:52:07.847Z,953.22
2016-10-22T02:53:07.414Z,953.20
2016-10-22T02:54:08.015Z,953.18
2016-10-22T02:55:07.600Z,953.25
2016-10-22T02:56:08.227Z,953.19
2016-10-22T02:57:07.834Z,953.17
2016-10-22T02:58:08.160Z,953.21
2016-10-22T02:59:08.186Z,953.19
2016-10-22T03:00:13.257Z,953.22
2016-10-22T03:01:08.007Z,953.23
2016-10-22T03:02:07.610Z,953.21
2016-10-22T03:03:08.376Z,953.18
2016-10-22T03:04:08.047Z,953.23
2016-10-22T03:05:07.643Z,953.20
2016-10-22T03:06:08.249Z,953.22
2016-10-22T03:07:08.130Z,953.21
2016-10-22T03:08:07.620Z,953.23
2016-10-22T03:09:08.244Z,953.19
2016-10-22T03:10:07.869Z,953.18
2016-10-22T03:11:07.610Z,953.22
2016-10-22T03:12:08.215Z,953.21
2016-10-22T03:13:07.788Z,953.19
2016-10-22T03:14:07.292Z,953.20
2016-10-22T03:15:18.414Z,953.20
2016-10-22T03:16:07.983Z,953.22
2016-10-22T03:17:07.773Z,953.20
2016-10-22T03:18:07.433Z,953.20
2016-10-22T03:19:07.976Z,953.18
2016-10-22T03:20:07.644Z,953.21
2016-10-22T03:21:08.181Z,953.21
2016-10-22T03:22:07.932Z,953.28
2016-10-22T03:23:07.485Z,953.20
2016-10-22T03:24:07.978Z,953.22
2016-10-22T03:25:07.446Z,953.22
2016-10-22T03:26:07.966Z,953.24
2016-10-22T03:27:07.466Z,953.23
2016-10-22T03:28:08.095Z,953.25
2016-10-22T03:29:07.627Z,953.22
2016-10-22T03:30:08.075Z,953.22
2016-10-22T03:31:07.745Z,953.24
2016-10-22T03:32:08.450Z,953.23
2016-10-22T03:33:07.955Z,953.23
2016-10-22T03:34:07.745Z,953.23
2016-10-22T03:35:07.639Z,953.21
2016-10-22T03:36:08.365Z,953.25
2016-10-22T03:37:07.962Z,953.20
2016-10-22T03:38:07.796Z,953.19
2016-10-22T03:39:07.570Z,953.18
2016-10-22T03:40:08.180Z,953.18
2016-10-22T03:41:07.889Z,953.19
2016-10-22T03:42:07.669Z,953.19
2016-10-22T03:43:08.369Z,953.18
2016-10-22T03:44:08.046Z,953.15
2016-10-22T03:45:07.720Z,953.16
2016-10-22T03:46:08.382Z,953.16
2016-10-22T03:47:07.967Z,953.14
2016-10-22T03:48:07.517Z,953.13
2016-10-22T03:49:08.070Z,953.11
2016-10-22T03:50:07.875Z,953.13
2016-10-22T03:51:07.337Z,953.14
2016-10-22T03:52:07.898Z,953.10
2016-10-22T03:53:07.947Z,953.11
2016-10-22T03:54:07.710Z,953.11
2016-10-22T03:55:07.991Z,953.12
2016-10-22T03:56:07.636Z,953.14
2016-10-22T03:57:08.812Z,953.13
2016-10-22T03:58:07.367Z,953.04
2016-10-22T03:59:07.948Z,953.08
2016-10-22T04:00:07.574Z,953.10
2016-10-22T04:01:08.205Z,953.08
2016-10-22T04:02:07.670Z,953.04
2016-10-22T04:03:07.706Z,953.09
2016-10-22T04:04:08.305Z,953.04
2016-10-22T04:05:07.852Z,953.07
2016-10-22T04:06:07.315Z,953.08
2016-10-22T04:07:07.829Z,953.07
2016-10-22T04:08:07.351Z,953.08
2016-10-22T04:09:07.983Z,953.10
2016-10-22T04:10:07.477Z,953.09
2016-10-22T04:11:07.983Z,953.11
2016-10-22T04:12:07.458Z,953.08
2016-10-22T04:13:07.946Z,953.13
2016-10-22T04:14:07.505Z,953.15
2016-10-22T04:15:08.085Z,953.11
2016-10-22T04:16:07.858Z,953.17
2016-10-22T04:17:07.614Z,953.14
2016-10-22T04:18:08.158Z,953.17
2016-10-22T04:19:07.676Z,953.17
2016-10-22T04:20:08.278Z,953.16
2016-10-22T04:21:07.862Z,953.19
2016-10-22T04:22:07.342Z,953.17
2016-10-22T04:23:07.886Z,953.16
2016-10-22T04:24:08.071Z,953.14
2016-10-22T04:25:10.618Z,953.17
2016-10-22T04:26:07.608Z,953.14
2016-10-22T04:27:08.162Z,953.13
2016-10-22T04:28:07.698Z,953.11
2016-10-22T04:29:08.522Z,953.11
2016-10-22T04:30:08.101Z,953.15
2016-10-22T04:31:07.619Z,953.14
2016-10-22T04:32:08.135Z,953.11
2016-10-22T04:33:08.333Z,953.14
2016-10-22T04:34:07.965Z,953.14
2016-10-22T04:35:07.538Z,953.16
2016-10-22T04:36:08.099Z,953.13
2016-10-22T04:37:07.724Z,953.12
2016-10-22T04:38:08.284Z,953.15
2016-10-22T04:39:07.734Z,953.14
2016-10-22T04:40:08.475Z,953.15
2016-10-22T04:41:07.999Z,953.10
2016-10-22T04:42:07.618Z,953.14
2016-10-22T04:43:08.207Z,953.12
2016-10-22T04:44:07.778Z,953.12
2016-10-22T04:45:07.314Z,953.13
2016-10-22T04:46:07.995Z,953.13
2016-10-22T04:47:07.578Z,953.10
2016-10-22T04:48:08.066Z,953.08
2016-10-22T04:49:07.625Z,953.11
2016-10-22T04:50:08.134Z,953.15
2016-10-22T04:51:07.594Z,953.13
2016-10-22T04:52:08.103Z,953.08
2016-10-22T04:53:07.540Z,953.11
2016-10-22T04:54:07.345Z,953.17
2016-10-22T04:55:07.814Z,953.13
2016-10-22T04:56:07.371Z,953.12
2016-10-22T04:57:08.268Z,953.12
2016-10-22T04:58:07.924Z,953.12
2016-10-22T04:59:07.598Z,953.11
2016-10-22T05:00:08.147Z,953.14
2016-10-22T05:01:07.835Z,953.12
2016-10-22T05:02:07.399Z,953.12
2016-10-22T05:03:08.068Z,953.11
2016-10-22T05:04:07.659Z,953.16
2016-10-22T05:05:08.244Z,953.16
2016-10-22T05:06:08.146Z,953.16
2016-10-22T05:07:07.620Z,953.13
2016-10-22T05:08:08.269Z,953.13
2016-10-22T05:09:07.800Z,953.16
2016-10-22T05:10:07.257Z,953.14
2016-10-22T05:11:07.730Z,953.15
2016-10-22T05:12:08.321Z,953.14
2016-10-22T05:13:07.885Z,953.14
2016-10-22T05:14:07.449Z,953.15
2016-10-22T05:15:08.201Z,953.15
2016-10-22T05:16:07.962Z,953.16
2016-10-22T05:17:07.889Z,953.16
2016-10-22T05:18:07.576Z,953.18
2016-10-22T05:19:08.240Z,953.19
2016-10-22T05:20:07.790Z,953.18
2016-10-22T05:21:07.605Z,953.16
2016-10-22T05:22:08.477Z,953.20
2016-10-22T05:23:08.029Z,953.18
2016-10-22T05:24:07.872Z,953.15
2016-10-22T05:25:07.419Z,953.16
2016-10-22T05:26:07.976Z,953.16
2016-10-22T05:27:07.500Z,953.14
2016-10-22T05:28:08.062Z,953.18
2016-10-22T05:29:07.763Z,953.16
2016-10-22T05:30:07.419Z,953.16
2016-10-22T05:31:07.981Z,953.15
2016-10-22T05:32:07.541Z,953.14
2016-10-22T05:33:08.108Z,953.13
2016-10-22T05:34:08.724Z,953.15
2016-10-22T05:35:08.273Z,953.13
2016-10-22T05:36:07.872Z,953.15
2016-10-22T05:37:07.504Z,953.19
2016-10-22T05:38:08.151Z,953.16
2016-10-22T05:39:07.738Z,953.15
2016-10-22T05:40:08.253Z,953.22
2016-10-22T05:41:08.058Z,953.20
2016-10-22T05:42:07.607Z,953.22
2016-10-22T05:43:08.323Z,953.22
2016-10-22T05:44:07.804Z,953.22
2016-10-22T05:45:07.320Z,953.17
2016-10-22T05:46:08.051Z,953.21
2016-10-22T05:47:07.671Z,953.25
2016-10-22T05:48:08.141Z,953.21
2016-10-22T05:49:07.722Z,953.29
2016-10-22T05:50:08.312Z,953.27
2016-10-22T05:51:08.020Z,953.31
2016-10-22T05:52:08.144Z,953.29
2016-10-22T05:53:07.967Z,953.28
2016-10-22T05:54:07.636Z,953.33
2016-10-22T05:55:08.177Z,953.31
2016-10-22T05:56:07.794Z,953.34
2016-10-22T05:57:07.405Z,953.32
2016-10-22T05:58:07.880Z,953.35
2016-10-22T05:59:07.565Z,953.36
2016-10-22T06:00:08.227Z,953.36
2016-10-22T06:01:07.807Z,953.32
2016-10-22T06:02:07.351Z,953.34
2016-10-22T06:03:07.938Z,953.39
2016-10-22T06:04:07.520Z,953.36
2016-10-22T06:05:08.140Z,953.35
2016-10-22T06:06:07.652Z,953.42
2016-10-22T06:07:08.242Z,953.38
2016-10-22T06:08:07.806Z,953.41
2016-10-22T06:09:07.754Z,953.41
2016-10-22T06:10:07.341Z,953.40
2016-10-22T06:11:07.932Z,953.41
2016-10-22T06:12:07.854Z,953.43
2016-10-22T06:13:07.709Z,953.37
2016-10-22T06:14:07.424Z,953.44
2016-10-22T06:15:08.070Z,953.39
2016-10-22T06:16:07.600Z,953.39
2016-10-22T06:17:08.260Z,953.39
2016-10-22T06:18:07.759Z,953.38
2016-10-22T06:19:07.342Z,953.41
2016-10-22T06:20:07.847Z,953.40
2016-10-22T06:21:07.674Z,953.38
2016-10-22T06:22:08.286Z,953.39
2016-10-22T06:23:07.896Z,953.38
2016-10-22T06:24:07.376Z,953.37
2016-10-22T06:25:07.889Z,953.40
2016-10-22T06:26:07.506Z,953.36
2016-10-22T06:27:08.042Z,953.36
2016-10-22T06:28:07.618Z,953.37
2016-10-22T06:29:08.204Z,953.34
2016-10-22T06:30:07.867Z,953.36
2016-10-22T06:31:07.520Z,953.34
2016-10-22T06:32:08.101Z,953.38
2016-10-22T06:33:07.714Z,953.38
2016-10-22T06:34:08.263Z,953.36
2016-10-22T06:35:07.932Z,953.31
2016-10-22T06:36:07.671Z,953.31
2016-10-22T06:37:13.769Z,953.34
2016-10-22T06:38:07.337Z,953.28
2016-10-22T06:39:07.916Z,953.33
2016-10-22T06:40:07.489Z,953.35
2016-10-22T06:41:08.101Z,953.35
2016-10-22T06:42:07.532Z,953.28
2016-10-22T06:43:07.973Z,953.31
2016-10-22T06:44:07.620Z,953.34
2016-10-22T06:45:07.922Z,953.35
2016-10-22T06:46:08.092Z,953.32
2016-10-22T06:47:07.650Z,953.26
2016-10-22T06:48:08.124Z,953.26
2016-10-22T06:49:07.632Z,953.25
2016-10-22T06:50:08.212Z,953.25
2016-10-22T06:51:07.779Z,953.24
2016-10-22T06:52:07.243Z,953.28
2016-10-22T06:53:07.942Z,953.32
2016-10-22T06:54:07.540Z,953.26
2016-10-22T06:55:07.650Z,953.30
2016-10-22T06:56:10.021Z,953.27
2016-10-22T06:57:07.650Z,953.31
2016-10-22T06:58:08.319Z,953.25
2016-10-22T06:59:07.972Z,953.30
2016-10-22T07:00:07.615Z,953.32
2016-10-22T07:01:08.178Z,953.30
2016-10-22T07:02:07.669Z,953.30
2016-10-22T07:03:08.252Z,953.33
2016-10-22T07:04:08.036Z,953.31
2016-10-22T07:05:07.701Z,953.36
2016-10-22T07:06:08.320Z,953.33
2016-10-22T07:07:07.877Z,953.34
2016-10-22T07:08:07.428Z,953.35
2016-10-22T07:09:08.129Z,953.32
2016-10-22T07:10:07.719Z,953.29
2016-10-22T07:11:08.423Z,953.32
2016-10-22T07:12:07.990Z,953.34
2016-10-22T07:13:07.502Z,953.35
2016-10-22T07:14:08.020Z,953.32
2016-10-22T07:15:07.661Z,953.36
2016-10-22T07:16:08.199Z,953.36
2016-10-22T07:17:07.912Z,953.33
2016-10-22T07:18:07.419Z,953.38
2016-10-22T07:19:07.986Z,953.33
2016-10-22T07:20:07.551Z,953.33
2016-10-22T07:21:08.039Z,953.36
2016-10-22T07:22:07.572Z,953.35
2016-10-22T07:23:08.139Z,953.34
2016-10-22T07:24:07.656Z,953.34
2016-10-22T07:25:08.514Z,953.34
2016-10-22T07:26:08.364Z,953.31
2016-10-22T07:27:07.950Z,953.35
2016-10-22T07:28:07.552Z,953.31
2016-10-22T07:29:08.110Z,953.39
2016-10-22T07:30:07.666Z,953.29
2016-10-22T07:31:08.371Z,953.34
2016-10-22T07:32:07.872Z,953.32
2016-10-22T07:33:08.300Z,953.38
2016-10-22T07:34:07.735Z,953.32
2016-10-22T07:35:07.458Z,953.32
2016-10-22T07:36:08.168Z,953.35
2016-10-22T07:37:08.090Z,953.37
2016-10-22T07:38:07.520Z,953.36
2016-10-22T07:39:08.090Z,953.33
2016-10-22T07:40:07.695Z,953.37
2016-10-22T07:41:08.345Z,953.36
2016-10-22T07:42:07.921Z,953.36
2016-10-22T07:43:07.612Z,953.34
2016-10-22T07:44:08.296Z,953.34
2016-10-22T07:45:07.386Z,953.32
2016-10-22T07:46:07.900Z,953.33
2016-10-22T07:47:07.638Z,953.26
2016-10-22T07:48:08.239Z,953.28
2016-10-22T07:49:07.790Z,953.25
2016-10-22T07:50:07.211Z,953.24
2016-10-22T07:51:07.791Z,953.22
2016-10-22T07:52:07.259Z,953.23
2016-10-22T07:53:07.740Z,953.25
2016-10-22T07:54:08.211Z,953.24
2016-10-22T07:55:07.797Z,953.25
2016-10-22T07:56:07.944Z,953.27
2016-10-22T07:57:07.492Z,953.22
2016-10-22T07:58:08.043Z,953.17
2016-10-22T07:59:07.656Z,953.19
2016-10-22T08:00:08.479Z,953.14
2016-10-22T08:01:08.006Z,953.18
2016-10-22T08:02:07.493Z,953.17
2016-10-22T08:03:08.068Z,953.19
2016-10-22T08:04:07.510Z,953.18
2016-10-22T08:05:08.121Z,953.16
2016-10-22T08:06:07.654Z,953.15
2016-10-22T08:07:08.143Z,953.17
2016-10-22T08:08:07.646Z,953.15
2016-10-22T08:09:08.124Z,953.14
2016-10-22T08:10:07.651Z,953.13
2016-10-22T08:11:08.228Z,953.17
2016-10-22T08:12:07.841Z,953.14
2016-10-22T08:13:07.491Z,953.16
2016-10-22T08:14:08.013Z,953.18
2016-10-22T08:15:07.492Z,953.16
2016-10-22T08:16:08.063Z,953.16
2016-10-22T08:17:07.757Z,953.22
2016-10-22T08:18:07.703Z,953.16
2016-10-22T08:19:08.346Z,953.15
2016-10-22T08:20:07.972Z,953.20
2016-10-22T08:21:07.686Z,953.18
2016-10-22T08:22:10.095Z,953.18
2016-10-22T08:23:07.749Z,953.14
2016-10-22T08:24:08.340Z,953.20
2016-10-22T08:25:08.049Z,953.18
2016-10-22T08:26:07.713Z,953.18
2016-10-22T08:27:08.276Z,953.22
2016-10-22T08:28:07.896Z,953.17
2016-10-22T08:29:07.545Z,953.15
2016-10-22T08:30:08.314Z,953.18
2016-10-22T08:31:08.116Z,953.17
2016-10-22T08:32:08.466Z,953.15
2016-10-22T08:33:08.105Z,953.13
2016-10-22T08:34:07.753Z,953.14
2016-10-22T08:35:07.370Z,953.12
2016-10-22T08:36:07.991Z,953.18
2016-10-22T08:37:08.490Z,953.15
2016-10-22T08:38:07.976Z,953.13
2016-10-22T08:39:07.592Z,953.16
2016-10-22T08:40:08.141Z,953.17
2016-10-22T08:41:07.855Z,953.17
2016-10-22T08:42:07.349Z,953.17
2016-10-22T08:43:07.991Z,953.16
2016-10-22T08:44:07.504Z,953.18
2016-10-22T08:45:08.115Z,953.18
2016-10-22T08:46:07.654Z,953.14
2016-10-22T08:47:08.224Z,953.17
2016-10-22T08:48:07.797Z,953.15
2016-10-22T08:49:07.428Z,953.12
2016-10-22T08:50:08.016Z,953.14
2016-10-22T08:51:07.823Z,953.16
2016-10-22T08:52:07.365Z,953.17
2016-10-22T08:53:07.872Z,953.17
2016-10-22T08:54:07.435Z,953.16
2016-10-22T08:55:08.005Z,953.14
2016-10-22T08:56:07.610Z,953.13
2016-10-22T08:57:08.071Z,953.13
2016-10-22T08:58:07.658Z,953.19
2016-10-22T08:59:08.435Z,953.19
2016-10-22T09:00:08.034Z,953.21
2016-10-22T09:01:07.515Z,953.16
2016-10-22T09:02:08.094Z,953.17
2016-10-22T09:03:07.695Z,953.15
2016-10-22T09:04:08.549Z,953.16
2016-10-22T09:05:08.025Z,953.11
2016-10-22T09:06:07.929Z,953.15
2016-10-22T09:07:07.441Z,953.13
2016-10-22T09:08:07.981Z,953.14
2016-10-22T09:09:07.434Z,953.18
2016-10-22T09:10:08.034Z,953.15
2016-10-22T09:11:07.706Z,953.14
2016-10-22T09:12:08.322Z,953.18
2016-10-22T09:13:07.894Z,953.15
2016-10-22T09:14:07.539Z,953.21
2016-10-22T09:15:08.055Z,953.22
2016-10-22T09:16:07.524Z,953.19
2016-10-22T09:17:08.303Z,953.24
2016-10-22T09:18:07.881Z,953.17
2016-10-22T09:19:07.450Z,953.21
2016-10-22T09:20:08.100Z,953.23
2016-10-22T09:21:07.837Z,953.18
2016-10-22T09:22:07.824Z,953.23
2016-10-22T09:23:07.441Z,953.25
2016-10-22T09:24:08.040Z,953.24
2016-10-22T09:25:07.734Z,953.22
2016-10-22T09:26:07.458Z,953.23
2016-10-22T09:27:08.125Z,953.20
2016-10-22T09:28:07.803Z,953.21
2016-10-22T09:29:07.718Z,953.20
2016-10-22T09:30:08.342Z,953.26
2016-10-22T09:31:07.956Z,953.24
2016-10-22T09:32:07.518Z,953.26
2016-10-22T09:33:08.165Z,953.18
2016-10-22T09:34:07.869Z,953.21
2016-10-22T09:35:07.481Z,953.18
2016-10-22T09:36:08.059Z,953.16
2016-10-22T09:37:07.695Z,953.15
2016-10-22T09:38:08.418Z,953.16
2016-10-22T09:39:08.046Z,953.14
2016-10-22T09:40:07.873Z,953.15
2016-10-22T09:41:07.491Z,953.08
2016-10-22T09:42:07.976Z,953.11
2016-10-22T09:43:07.651Z,953.09
2016-10-22T09:44:08.435Z,953.03
2016-10-22T09:45:08.268Z,953.02
2016-10-22T09:46:07.853Z,953.00
2016-10-22T09:47:07.445Z,953.04
2016-10-22T09:48:07.926Z,953.01
2016-10-22T09:49:07.446Z,953.00
2016-10-22T09:50:07.935Z,953.02
2016-10-22T09:51:07.466Z,953.03
2016-10-22T09:52:07.935Z,953.01
2016-10-22T09:53:07.554Z,953.00
2016-10-22T09:54:08.298Z,952.98
2016-10-22T09:55:08.024Z,952.97
2016-10-22T09:56:07.687Z,952.98
2016-10-22T09:57:08.296Z,952.95
2016-10-22T09:58:07.939Z,952.95
2016-10-22T09:59:18.084Z,952.94
2016-10-22T10:00:07.707Z,952.92
2016-10-22T10:01:08.319Z,952.93
2016-10-22T10:02:07.907Z,952.92
2016-10-22T10:03:07.540Z,952.91
2016-10-22T10:04:08.240Z,952.92
2016-10-22T10:05:07.822Z,952.91
2016-10-22T10:06:07.411Z,952.93
2016-10-22T10:07:08.081Z,952.93
2016-10-22T10:08:07.595Z,952.92
2016-10-22T10:09:08.194Z,952.91
2016-10-22T10:10:07.709Z,952.93
2016-10-22T10:11:08.201Z,952.87
2016-10-22T10:12:07.699Z,952.91
2016-10-22T10:13:08.270Z,952.93
2016-10-22T10:14:07.836Z,952.93
2016-10-22T10:15:07.362Z,952.93
2016-10-22T10:16:08.066Z,952.94
2016-10-22T10:17:07.828Z,952.96
2016-10-22T10:18:07.530Z,952.97
2016-10-22T10:19:08.082Z,952.91
2016-10-22T10:20:07.654Z,952.92
2016-10-22T10:21:08.468Z,952.91
2016-10-22T10:22:08.193Z,952.92
2016-10-22T10:23:08.161Z,952.92
2016-10-22T10:24:07.511Z,952.91
2016-10-22T10:25:08.294Z,952.96
2016-10-22T10:26:08.025Z,952.91
2016-10-22T10:27:07.676Z,952.98
2016-10-22T10:28:08.198Z,952.98
2016-10-22T10:29:07.826Z,952.97
2016-10-22T10:30:07.337Z,952.95
2016-10-22T10:31:07.818Z,952.94
2016-10-22T10:32:07.356Z,952.91
2016-10-22T10:33:07.847Z,952.93
2016-10-22T10:34:07.378Z,952.98
2016-10-22T10:35:08.022Z,952.92
2016-10-22T10:36:07.597Z,952.95
2016-10-22T10:37:08.168Z,952.91
2016-10-22T10:38:07.713Z,952.90
2016-10-22T10:39:08.323Z,952.90
2016-10-22T10:40:07.976Z,952.90
2016-10-22T10:41:07.504Z,952.91
2016-10-22T10:42:08.050Z,952.91
2016-10-22T10:43:07.603Z,952.93
2016-10-22T10:44:08.145Z,952.97
2016-10-22T10:45:07.686Z,952.93
2016-10-22T10:46:08.345Z,952.82
2016-10-22T10:47:08.066Z,952.82
2016-10-22T10:48:07.697Z,952.84
2016-10-22T10:49:07.907Z,952.84
2016-10-22T10:50:07.427Z,952.83
2016-10-22T10:51:08.071Z,952.78
2016-10-22T10:52:07.578Z,952.74
2016-10-22T10:53:08.194Z,952.81
2016-10-22T10:54:07.722Z,952.78
2016-10-22T10:55:07.460Z,952.74
2016-10-22T10:56:08.044Z,952.78
2016-10-22T10:57:07.739Z,952.77
2016-10-22T10:58:08.271Z,952.73
2016-10-22T10:59:08.022Z,952.70
2016-10-22T11:00:07.622Z,952.69
2016-10-22T11:01:08.185Z,952.76
2016-10-22T11:02:07.641Z,952.73
2016-10-22T11:03:08.352Z,952.74
2016-10-22T11:04:08.004Z,952.74
2016-10-22T11:05:07.599Z,952.75
2016-10-22T11:06:08.200Z,952.72
2016-10-22T11:07:07.835Z,952.73
2016-10-22T11:08:07.326Z,952.75
2016-10-22T11:09:07.937Z,952.70
2016-10-22T11:10:07.488Z,952.69
2016-10-22T11:11:08.072Z,952.73
2016-10-22T11:12:13.184Z,952.78
2016-10-22T11:13:08.055Z,952.76
2016-10-22T11:14:07.723Z,952.76
2016-10-22T11:15:07.364Z,952.72
2016-10-22T11:16:07.990Z,952.84
2016-10-22T11:17:07.811Z,952.76
2016-10-22T11:18:07.765Z,952.76
2016-10-22T11:19:07.405Z,952.72
2016-10-22T11:20:07.928Z,952.72
2016-10-22T11:21:07.696Z,952.68
2016-10-22T11:22:08.243Z,952.68
2016-10-22T11:23:07.800Z,952.72
2016-10-22T11:24:07.434Z,952.71
2016-10-22T11:25:08.066Z,952.68
2016-10-22T11:26:07.672Z,952.67
2016-10-22T11:27:08.323Z,952.68
2016-10-22T11:28:08.339Z,952.67
2016-10-22T11:29:08.021Z,952.66
2016-10-22T11:30:13.575Z,952.64
2016-10-22T11:31:13.851Z,952.64
2016-10-22T11:32:07.668Z,952.65
2016-10-22T11:33:08.026Z,952.61
2016-10-22T11:34:07.595Z,952.61
2016-10-22T11:35:08.200Z,952.59
2016-10-22T11:36:07.751Z,952.63
2016-10-22T11:37:08.403Z,952.64
2016-10-22T11:38:08.049Z,952.64
2016-10-22T11:39:07.678Z,952.56
2016-10-22T11:40:13.878Z,952.58
2016-10-22T11:41:07.750Z,952.60
2016-10-22T11:42:08.407Z,952.61
2016-10-22T11:43:07.909Z,952.58
2016-10-22T11:44:07.532Z,952.55
2016-10-22T11:45:08.062Z,952.54
2016-10-22T11:46:07.564Z,952.55
2016-10-22T11:47:08.055Z,952.55
2016-10-22T11:48:07.503Z,952.61
2016-10-22T11:49:07.576Z,952.58
2016-10-22T11:50:08.122Z,952.62
2016-10-22T11:51:07.650Z,952.61
2016-10-22T11:52:08.490Z,952.61
2016-10-22T11:53:07.973Z,952.55
2016-10-22T11:54:07.625Z,952.60
2016-10-22T11:55:08.160Z,952.61
2016-10-22T11:56:07.807Z,952.60
2016-10-22T11:57:07.304Z,952.55
2016-10-22T11:58:07.856Z,952.61
2016-10-22T11:59:07.513Z,952.58
2016-10-22T12:00:08.146Z,952.54
2016-10-22T12:01:07.776Z,952.59
2016-10-22T12:02:07.428Z,952.56
2016-10-22T12:03:07.978Z,952.55
2016-10-22T12:04:07.594Z,952.52
2016-10-22T12:05:08.369Z,952.50
2016-10-22T12:06:08.127Z,952.52
2016-10-22T12:07:07.783Z,952.49
2016-10-22T12:08:07.463Z,952.52
2016-10-22T12:09:08.166Z,952.50
2016-10-22T12:10:07.797Z,952.49
2016-10-22T12:11:07.300Z,952.46
2016-10-22T12:12:07.949Z,952.45
2016-10-22T12:13:07.819Z,952.45
2016-10-22T12:14:07.670Z,952.48
2016-10-22T12:15:08.309Z,952.48
2016-10-22T12:16:07.839Z,952.50
2016-10-22T12:17:07.464Z,952.45
2016-10-22T12:18:08.227Z,952.46
2016-10-22T12:19:07.840Z,952.48
2016-10-22T12:20:07.297Z,952.54
2016-10-22T12:21:07.931Z,952.44
2016-10-22T12:22:07.447Z,952.48
2016-10-22T12:23:08.585Z,952.48
2016-10-22T12:24:08.424Z,952.48
2016-10-22T12:25:18.614Z,952.48
2016-10-22T12:26:08.305Z,952.45
2016-10-22T12:27:07.896Z,952.45
2016-10-22T12:28:07.466Z,952.44